sensor_id;sensor_type;location;lat;lon;timestamp;pressure;altitude;pressure_sealevel;temperature;humidity
25084;BME280;13075;55.682;37.564;2023-03-01T00:00:59;98682.13;;;0.58;57.05
25084;BME280;13075;55.682;37.564;2023-03-01T00:03:26;98687.69;;;0.55;57.16
25084;BME280;13075;55.682;37.564;2023-03-01T00:05:52;98685.97;;;0.72;56.94
25084;BME280;13075;55.682;37.564;2023-03-01T00:08:19;98682.81;;;0.68;56.65
25084;BME280;13075;55.682;37.564;2023-03-01T00:10:44;98688.19;;;0.50;57.06
25084;BME280;13075;55.682;37.564;2023-03-01T00:13:10;98680.16;;;0.60;56.87
25084;BME280;13075;55.682;37.564;2023-03-01T00:15:40;98682.16;;;0.66;57.14
25084;BME280;13075;55.682;37.564;2023-03-01T00:18:07;98669.22;;;0.81;56.83
25084;BME280;13075;55.682;37.564;2023-03-01T00:20:34;98674.06;;;0.51;56.76
25084;BME280;13075;55.682;37.564;2023-03-01T00:23:00;98669.97;;;0.65;56.85
25084;BME280;13075;55.682;37.564;2023-03-01T00:25:26;98674.44;;;0.65;56.90
25084;BME280;13075;55.682;37.564;2023-03-01T00:27:51;98679.00;;;0.62;57.38
25084;BME280;13075;55.682;37.564;2023-03-01T00:30:18;98674.13;;;0.76;57.00
25084;BME280;13075;55.682;37.564;2023-03-01T00:32:45;98670.66;;;0.75;56.64
25084;BME280;13075;55.682;37.564;2023-03-01T00:35:11;98667.75;;;0.86;56.47
25084;BME280;13075;55.682;37.564;2023-03-01T00:37:38;98672.53;;;0.41;56.78
25084;BME280;13075;55.682;37.564;2023-03-01T00:40:05;98677.53;;;0.60;56.35
25084;BME280;13075;55.682;37.564;2023-03-01T00:42:32;98676.25;;;0.64;56.92
25084;BME280;13075;55.682;37.564;2023-03-01T00:44:57;98670.47;;;0.60;56.78
25084;BME280;13075;55.682;37.564;2023-03-01T00:47:23;98669.94;;;0.49;56.74
25084;BME280;13075;55.682;37.564;2023-03-01T00:49:49;98676.34;;;0.54;56.91
25084;BME280;13075;55.682;37.564;2023-03-01T00:52:15;98672.97;;;0.36;56.71
25084;BME280;13075;55.682;37.564;2023-03-01T00:54:41;98667.59;;;0.46;56.78
25084;BME280;13075;55.682;37.564;2023-03-01T00:57:07;98667.88;;;0.35;57.53
25084;BME280;13075;55.682;37.564;2023-03-01T00:59:33;98668.84;;;0.34;56.95
25084;BME280;13075;55.682;37.564;2023-03-01T01:01:58;98662.66;;;0.43;56.96
25084;BME280;13075;55.682;37.564;2023-03-01T01:04:24;98663.28;;;0.37;56.95
25084;BME280;13075;55.682;37.564;2023-03-01T01:06:51;98664.31;;;0.52;57.14
25084;BME280;13075;55.682;37.564;2023-03-01T01:09:17;98660.81;;;0.35;57.20
25084;BME280;13075;55.682;37.564;2023-03-01T01:11:49;98675.16;;;0.41;56.94
25084;BME280;13075;55.682;37.564;2023-03-01T01:14:20;98663.44;;;0.35;57.04
25084;BME280;13075;55.682;37.564;2023-03-01T01:16:47;98672.22;;;0.18;57.35
25084;BME280;13075;55.682;37.564;2023-03-01T01:19:14;98669.59;;;0.52;57.78
25084;BME280;13075;55.682;37.564;2023-03-01T01:21:40;98673.22;;;0.51;57.69
25084;BME280;13075;55.682;37.564;2023-03-01T01:24:09;98674.84;;;0.52;57.53
25084;BME280;13075;55.682;37.564;2023-03-01T01:26:34;98666.00;;;-0.07;57.59
25084;BME280;13075;55.682;37.564;2023-03-01T01:29:02;98665.63;;;0.48;57.83
25084;BME280;13075;55.682;37.564;2023-03-01T01:31:29;98671.41;;;0.51;57.09
25084;BME280;13075;55.682;37.564;2023-03-01T01:33:57;98682.78;;;0.26;57.70
25084;BME280;13075;55.682;37.564;2023-03-01T01:36:24;98683.78;;;0.25;58.69
25084;BME280;13075;55.682;37.564;2023-03-01T01:38:50;98687.66;;;-0.30;58.28
25084;BME280;13075;55.682;37.564;2023-03-01T01:41:17;98686.25;;;0.01;58.60
25084;BME280;13075;55.682;37.564;2023-03-01T01:43:46;98683.97;;;0.06;59.05
25084;BME280;13075;55.682;37.564;2023-03-01T01:46:19;98665.97;;;0.19;59.10
25084;BME280;13075;55.682;37.564;2023-03-01T01:48:54;98678.66;;;-0.02;59.47
25084;BME280;13075;55.682;37.564;2023-03-01T01:51:27;98674.19;;;0.16;59.48
25084;BME280;13075;55.682;37.564;2023-03-01T01:53:59;98673.34;;;0.16;59.75
25084;BME280;13075;55.682;37.564;2023-03-01T01:56:27;98677.84;;;0.23;59.95
25084;BME280;13075;55.682;37.564;2023-03-01T01:58:53;98680.41;;;0.41;59.88
25084;BME280;13075;55.682;37.564;2023-03-01T02:01:20;98682.19;;;0.07;59.86
25084;BME280;13075;55.682;37.564;2023-03-01T02:03:47;98679.50;;;-0.02;59.95
25084;BME280;13075;55.682;37.564;2023-03-01T02:08:48;98674.53;;;0.21;58.84
25084;BME280;13075;55.682;37.564;2023-03-01T02:11:17;98672.78;;;0.30;59.39
25084;BME280;13075;55.682;37.564;2023-03-01T02:13:43;98670.22;;;0.12;59.38
25084;BME280;13075;55.682;37.564;2023-03-01T02:16:12;98666.94;;;0.10;59.44
25084;BME280;13075;55.682;37.564;2023-03-01T02:18:41;98670.94;;;-0.04;59.70
25084;BME280;13075;55.682;37.564;2023-03-01T02:23:39;98665.16;;;-0.07;59.71
25084;BME280;13075;55.682;37.564;2023-03-01T02:28:36;98681.75;;;-0.32;60.78
25084;BME280;13075;55.682;37.564;2023-03-01T02:31:05;98678.19;;;-0.23;60.86
25084;BME280;13075;55.682;37.564;2023-03-01T02:33:51;98679.00;;;-0.23;60.24
25084;BME280;13075;55.682;37.564;2023-03-01T02:36:28;98684.34;;;-0.15;61.29
25084;BME280;13075;55.682;37.564;2023-03-01T02:39:00;98682.34;;;-0.21;61.73
25084;BME280;13075;55.682;37.564;2023-03-01T02:41:30;98687.63;;;-0.13;62.27
25084;BME280;13075;55.682;37.564;2023-03-01T02:43:57;98679.44;;;-0.10;61.80
25084;BME280;13075;55.682;37.564;2023-03-01T02:46:25;98687.47;;;-0.37;62.50
25084;BME280;13075;55.682;37.564;2023-03-01T02:48:55;98694.06;;;-0.33;62.22
25084;BME280;13075;55.682;37.564;2023-03-01T02:54:56;98692.63;;;-0.27;62.67
25084;BME280;13075;55.682;37.564;2023-03-01T02:57:24;98687.84;;;-0.06;61.90
25084;BME280;13075;55.682;37.564;2023-03-01T02:59:54;98696.69;;;-0.33;62.32
25084;BME280;13075;55.682;37.564;2023-03-01T03:02:26;98689.75;;;-0.16;62.50
25084;BME280;13075;55.682;37.564;2023-03-01T03:05:11;98688.47;;;-0.12;62.69
25084;BME280;13075;55.682;37.564;2023-03-01T03:07:40;98691.59;;;-0.34;62.98
25084;BME280;13075;55.682;37.564;2023-03-01T03:10:10;98693.88;;;-0.57;63.60
25084;BME280;13075;55.682;37.564;2023-03-01T03:12:38;98697.34;;;-0.31;63.71
25084;BME280;13075;55.682;37.564;2023-03-01T03:15:07;98698.56;;;-0.43;63.52
25084;BME280;13075;55.682;37.564;2023-03-01T03:17:38;98701.88;;;-0.58;64.09
25084;BME280;13075;55.682;37.564;2023-03-01T03:20:06;98699.88;;;-0.65;65.30
25084;BME280;13075;55.682;37.564;2023-03-01T03:22:39;98697.31;;;-0.39;64.70
25084;BME280;13075;55.682;37.564;2023-03-01T03:25:07;98705.56;;;-0.34;63.94
25084;BME280;13075;55.682;37.564;2023-03-01T03:27:38;98707.03;;;-0.49;64.37
25084;BME280;13075;55.682;37.564;2023-03-01T03:30:07;98700.09;;;-0.58;64.64
25084;BME280;13075;55.682;37.564;2023-03-01T03:32:41;98701.50;;;-0.46;64.89
25084;BME280;13075;55.682;37.564;2023-03-01T03:35:26;98712.53;;;-0.42;64.94
25084;BME280;13075;55.682;37.564;2023-03-01T03:37:52;98714.53;;;-0.89;65.51
25084;BME280;13075;55.682;37.564;2023-03-01T03:40:30;98708.94;;;-0.77;66.13
25084;BME280;13075;55.682;37.564;2023-03-01T03:42:57;98707.88;;;-0.84;67.62
25084;BME280;13075;55.682;37.564;2023-03-01T03:45:23;98707.59;;;-0.81;67.73
25084;BME280;13075;55.682;37.564;2023-03-01T03:47:48;98711.88;;;-0.44;66.40
25084;BME280;13075;55.682;37.564;2023-03-01T03:50:15;98715.44;;;-0.98;67.00
25084;BME280;13075;55.682;37.564;2023-03-01T03:52:41;98716.59;;;-0.83;67.59
25084;BME280;13075;55.682;37.564;2023-03-01T03:55:09;98710.69;;;-0.95;68.74
25084;BME280;13075;55.682;37.564;2023-03-01T03:57:41;98710.13;;;-0.53;69.26
25084;BME280;13075;55.682;37.564;2023-03-01T04:00:10;98710.47;;;-1.01;68.08
25084;BME280;13075;55.682;37.564;2023-03-01T04:02:40;98707.34;;;-0.87;68.44
25084;BME280;13075;55.682;37.564;2023-03-01T04:05:08;98715.38;;;-0.89;68.27
25084;BME280;13075;55.682;37.564;2023-03-01T04:07:35;98712.00;;;-0.81;68.47
25084;BME280;13075;55.682;37.564;2023-03-01T04:10:05;98711.09;;;-0.72;68.09
25084;BME280;13075;55.682;37.564;2023-03-01T04:12:32;98718.38;;;-0.84;68.95
25084;BME280;13075;55.682;37.564;2023-03-01T04:15:00;98718.25;;;-0.65;68.23
25084;BME280;13075;55.682;37.564;2023-03-01T04:17:26;98719.00;;;-0.54;68.62
25084;BME280;13075;55.682;37.564;2023-03-01T04:19:52;98726.34;;;-0.76;68.48
25084;BME280;13075;55.682;37.564;2023-03-01T04:22:17;98730.53;;;-0.30;67.12
25084;BME280;13075;55.682;37.564;2023-03-01T04:24:44;98727.09;;;-0.48;67.11
25084;BME280;13075;55.682;37.564;2023-03-01T04:27:11;98727.53;;;-0.35;66.78
25084;BME280;13075;55.682;37.564;2023-03-01T04:29:37;98732.59;;;-0.41;67.13
25084;BME280;13075;55.682;37.564;2023-03-01T04:32:02;98736.09;;;-0.68;68.69
25084;BME280;13075;55.682;37.564;2023-03-01T04:34:29;98739.91;;;-0.27;67.41
25084;BME280;13075;55.682;37.564;2023-03-01T04:36:55;98744.72;;;-0.58;67.80
25084;BME280;13075;55.682;37.564;2023-03-01T04:39:21;98742.78;;;-0.38;66.87
25084;BME280;13075;55.682;37.564;2023-03-01T04:41:47;98743.38;;;-0.62;67.67
25084;BME280;13075;55.682;37.564;2023-03-01T04:44:13;98746.06;;;-0.54;67.98
25084;BME280;13075;55.682;37.564;2023-03-01T04:46:39;98743.59;;;-0.20;67.10
25084;BME280;13075;55.682;37.564;2023-03-01T04:49:05;98737.81;;;0.20;65.67
25084;BME280;13075;55.682;37.564;2023-03-01T04:51:31;98733.69;;;0.17;65.13
25084;BME280;13075;55.682;37.564;2023-03-01T04:53:59;98741.75;;;-0.02;66.15
25084;BME280;13075;55.682;37.564;2023-03-01T04:56:25;98743.97;;;0.28;64.94
25084;BME280;13075;55.682;37.564;2023-03-01T04:58:53;98748.56;;;0.09;63.55
25084;BME280;13075;55.682;37.564;2023-03-01T05:01:19;98741.63;;;0.51;65.63
25084;BME280;13075;55.682;37.564;2023-03-01T05:03:50;98737.16;;;0.85;62.82
25084;BME280;13075;55.682;37.564;2023-03-01T05:06:18;98752.97;;;0.51;62.92
25084;BME280;13075;55.682;37.564;2023-03-01T05:08:44;98744.25;;;0.85;63.21
25084;BME280;13075;55.682;37.564;2023-03-01T05:11:11;98748.94;;;0.65;62.37
25084;BME280;13075;55.682;37.564;2023-03-01T05:13:38;98747.06;;;0.91;62.12
25084;BME280;13075;55.682;37.564;2023-03-01T05:16:06;98749.38;;;1.36;61.57
25084;BME280;13075;55.682;37.564;2023-03-01T05:18:33;98752.63;;;1.30;61.13
25084;BME280;13075;55.682;37.564;2023-03-01T05:21:07;98752.78;;;1.20;59.63
25084;BME280;13075;55.682;37.564;2023-03-01T05:23:33;98758.13;;;1.61;60.14
25084;BME280;13075;55.682;37.564;2023-03-01T05:26:00;98761.88;;;1.42;60.00
25084;BME280;13075;55.682;37.564;2023-03-01T05:28:27;98761.72;;;1.36;60.10
25084;BME280;13075;55.682;37.564;2023-03-01T05:30:54;98765.22;;;1.68;59.42
25084;BME280;13075;55.682;37.564;2023-03-01T05:33:20;98767.56;;;1.79;59.22
25084;BME280;13075;55.682;37.564;2023-03-01T05:35:48;98761.78;;;1.84;59.35
25084;BME280;13075;55.682;37.564;2023-03-01T05:38:15;98767.72;;;2.42;58.60
25084;BME280;13075;55.682;37.564;2023-03-01T05:40:42;98770.34;;;2.02;58.08
25084;BME280;13075;55.682;37.564;2023-03-01T05:43:09;98774.16;;;2.32;58.48
25084;BME280;13075;55.682;37.564;2023-03-01T05:45:36;98783.88;;;1.83;58.25
25084;BME280;13075;55.682;37.564;2023-03-01T05:48:02;98784.19;;;2.36;58.55
25084;BME280;13075;55.682;37.564;2023-03-01T05:50:29;98786.00;;;2.44;57.69
25084;BME280;13075;55.682;37.564;2023-03-01T05:55:23;98779.06;;;2.51;57.50
25084;BME280;13075;55.682;37.564;2023-03-01T05:57:49;98785.19;;;1.87;58.40
25084;BME280;13075;55.682;37.564;2023-03-01T06:00:17;98788.78;;;2.59;57.88
25084;BME280;13075;55.682;37.564;2023-03-01T06:02:44;98790.03;;;2.79;57.69
25084;BME280;13075;55.682;37.564;2023-03-01T06:05:12;98791.81;;;2.94;56.48
25084;BME280;13075;55.682;37.564;2023-03-01T06:07:38;98781.00;;;2.81;56.99
25084;BME280;13075;55.682;37.564;2023-03-01T06:10:05;98787.59;;;3.24;56.56
25084;BME280;13075;55.682;37.564;2023-03-01T06:12:35;98786.72;;;2.93;56.52
25084;BME280;13075;55.682;37.564;2023-03-01T06:15:03;98778.09;;;3.07;56.07
25084;BME280;13075;55.682;37.564;2023-03-01T06:17:30;98785.13;;;3.23;56.33
25084;BME280;13075;55.682;37.564;2023-03-01T06:19:56;98798.63;;;3.66;55.50
25084;BME280;13075;55.682;37.564;2023-03-01T06:22:22;98799.13;;;4.30;54.32
25084;BME280;13075;55.682;37.564;2023-03-01T06:24:48;98783.34;;;5.18;53.69
25084;BME280;13075;55.682;37.564;2023-03-01T06:27:13;98795.72;;;6.18;52.88
25084;BME280;13075;55.682;37.564;2023-03-01T06:29:39;98800.25;;;4.87;53.98
25084;BME280;13075;55.682;37.564;2023-03-01T06:32:04;98793.75;;;5.34;53.07
25084;BME280;13075;55.682;37.564;2023-03-01T06:34:30;98796.03;;;6.30;54.14
25084;BME280;13075;55.682;37.564;2023-03-01T06:36:56;98775.78;;;10.92;58.23
25084;BME280;13075;55.682;37.564;2023-03-01T06:39:21;98779.44;;;10.24;56.24
25084;BME280;13075;55.682;37.564;2023-03-01T06:41:47;98783.91;;;9.98;54.10
25084;BME280;13075;55.682;37.564;2023-03-01T06:44:13;98780.72;;;9.77;49.79
25084;BME280;13075;55.682;37.564;2023-03-01T06:46:39;98785.16;;;9.52;47.22
25084;BME280;13075;55.682;37.564;2023-03-01T06:49:05;98788.81;;;9.00;47.36
25084;BME280;13075;55.682;37.564;2023-03-01T06:51:35;98782.34;;;10.72;46.09
25084;BME280;13075;55.682;37.564;2023-03-01T06:54:03;98776.53;;;11.36;43.92
25084;BME280;13075;55.682;37.564;2023-03-01T06:56:29;98792.88;;;9.73;44.46
25084;BME280;13075;55.682;37.564;2023-03-01T06:58:55;98784.38;;;10.76;42.46
25084;BME280;13075;55.682;37.564;2023-03-01T07:01:20;98788.97;;;10.44;42.38
25084;BME280;13075;55.682;37.564;2023-03-01T07:03:46;98785.22;;;10.95;41.64
25084;BME280;13075;55.682;37.564;2023-03-01T07:06:12;98787.44;;;12.18;40.76
25084;BME280;13075;55.682;37.564;2023-03-01T07:08:37;98794.75;;;12.11;39.31
25084;BME280;13075;55.682;37.564;2023-03-01T07:11:03;98801.81;;;9.40;41.55
25084;BME280;13075;55.682;37.564;2023-03-01T07:13:29;98809.75;;;8.83;42.92
25084;BME280;13075;55.682;37.564;2023-03-01T07:15:55;98798.34;;;10.78;40.69
25084;BME280;13075;55.682;37.564;2023-03-01T07:18:21;98794.44;;;12.19;39.85
25084;BME280;13075;55.682;37.564;2023-03-01T07:20:46;98797.50;;;11.57;39.26
25084;BME280;13075;55.682;37.564;2023-03-01T07:23:12;98806.72;;;10.01;40.35
25084;BME280;13075;55.682;37.564;2023-03-01T07:25:37;98808.38;;;11.44;39.71
25084;BME280;13075;55.682;37.564;2023-03-01T07:28:03;98788.19;;;15.54;34.60
25084;BME280;13075;55.682;37.564;2023-03-01T07:30:29;98791.69;;;16.25;32.75
25084;BME280;13075;55.682;37.564;2023-03-01T07:32:56;98795.84;;;14.12;34.50
25084;BME280;13075;55.682;37.564;2023-03-01T07:35:23;98809.19;;;13.39;35.73
25084;BME280;13075;55.682;37.564;2023-03-01T07:37:48;98801.16;;;15.02;33.31
25084;BME280;13075;55.682;37.564;2023-03-01T07:40:14;98802.47;;;14.50;33.52
25084;BME280;13075;55.682;37.564;2023-03-01T07:42:39;98802.75;;;15.36;33.45
25084;BME280;13075;55.682;37.564;2023-03-01T07:45:06;98797.28;;;15.91;32.42
25084;BME280;13075;55.682;37.564;2023-03-01T07:47:32;98805.03;;;16.63;32.28
25084;BME280;13075;55.682;37.564;2023-03-01T07:49:58;98825.03;;;12.94;34.81
25084;BME280;13075;55.682;37.564;2023-03-01T07:52:23;98827.91;;;11.69;36.40
25084;BME280;13075;55.682;37.564;2023-03-01T07:54:49;98824.66;;;11.97;36.92
25084;BME280;13075;55.682;37.564;2023-03-01T07:57:14;98829.03;;;11.18;36.69
25084;BME280;13075;55.682;37.564;2023-03-01T07:59:40;98833.22;;;9.45;39.62
25084;BME280;13075;55.682;37.564;2023-03-01T08:02:06;98845.44;;;8.49;40.96
25084;BME280;13075;55.682;37.564;2023-03-01T08:04:32;98844.47;;;7.42;42.23
25084;BME280;13075;55.682;37.564;2023-03-01T08:06:58;98838.72;;;10.08;39.32
25084;BME280;13075;55.682;37.564;2023-03-01T08:09:24;98822.97;;;12.14;36.28
25084;BME280;13075;55.682;37.564;2023-03-01T08:11:50;98826.94;;;12.52;36.42
25084;BME280;13075;55.682;37.564;2023-03-01T08:14:15;98812.38;;;16.14;32.26
25084;BME280;13075;55.682;37.564;2023-03-01T08:16:41;98823.81;;;15.56;31.63
25084;BME280;13075;55.682;37.564;2023-03-01T08:19:09;98831.84;;;11.84;36.18
25084;BME280;13075;55.682;37.564;2023-03-01T08:21:35;98837.16;;;9.93;38.04
25084;BME280;13075;55.682;37.564;2023-03-01T08:24:05;98841.31;;;8.47;39.90
25084;BME280;13075;55.682;37.564;2023-03-01T08:26:31;98838.25;;;8.30;40.78
25084;BME280;13075;55.682;37.564;2023-03-01T08:28:57;98842.72;;;7.63;41.98
25084;BME280;13075;55.682;37.564;2023-03-01T08:31:25;98847.09;;;7.02;42.41
25084;BME280;13075;55.682;37.564;2023-03-01T08:33:54;98848.13;;;6.52;43.67
25084;BME280;13075;55.682;37.564;2023-03-01T08:36:22;98859.56;;;6.73;44.61
25084;BME280;13075;55.682;37.564;2023-03-01T08:38:48;98853.09;;;5.98;44.17
25084;BME280;13075;55.682;37.564;2023-03-01T08:41:14;98865.25;;;6.07;45.80
25084;BME280;13075;55.682;37.564;2023-03-01T08:43:40;98852.81;;;6.28;44.80
25084;BME280;13075;55.682;37.564;2023-03-01T08:46:06;98857.94;;;6.09;44.90
25084;BME280;13075;55.682;37.564;2023-03-01T08:48:31;98847.66;;;5.85;45.39
25084;BME280;13075;55.682;37.564;2023-03-01T08:51:07;98856.25;;;5.87;45.95
25084;BME280;13075;55.682;37.564;2023-03-01T08:53:32;98859.94;;;6.28;45.41
25084;BME280;13075;55.682;37.564;2023-03-01T08:56:00;98858.13;;;6.28;44.67
25084;BME280;13075;55.682;37.564;2023-03-01T08:58:28;98856.59;;;6.41;44.97
25084;BME280;13075;55.682;37.564;2023-03-01T09:00:53;98864.75;;;6.39;44.73
25084;BME280;13075;55.682;37.564;2023-03-01T09:03:19;98872.09;;;6.58;44.66
25084;BME280;13075;55.682;37.564;2023-03-01T09:05:44;98867.25;;;6.05;45.13
25084;BME280;13075;55.682;37.564;2023-03-01T09:08:11;98884.81;;;5.85;45.52
25084;BME280;13075;55.682;37.564;2023-03-01T09:10:38;98873.81;;;5.58;45.58
25084;BME280;13075;55.682;37.564;2023-03-01T09:13:04;98860.31;;;6.04;45.77
25084;BME280;13075;55.682;37.564;2023-03-01T09:15:30;98871.00;;;6.10;45.64
25084;BME280;13075;55.682;37.564;2023-03-01T09:17:55;98874.13;;;5.99;45.30
25084;BME280;13075;55.682;37.564;2023-03-01T09:20:21;98868.41;;;5.96;45.50
25084;BME280;13075;55.682;37.564;2023-03-01T09:22:47;98874.75;;;6.58;45.33
25084;BME280;13075;55.682;37.564;2023-03-01T09:25:12;98867.22;;;5.98;45.33
25084;BME280;13075;55.682;37.564;2023-03-01T09:27:38;98870.28;;;6.02;44.98
25084;BME280;13075;55.682;37.564;2023-03-01T09:30:04;98866.44;;;5.54;46.13
25084;BME280;13075;55.682;37.564;2023-03-01T09:32:30;98873.19;;;5.27;46.71
25084;BME280;13075;55.682;37.564;2023-03-01T09:34:56;98877.94;;;5.32;46.65
25084;BME280;13075;55.682;37.564;2023-03-01T09:37:32;98878.78;;;5.18;46.79
25084;BME280;13075;55.682;37.564;2023-03-01T09:39:58;98892.34;;;4.48;48.00
25084;BME280;13075;55.682;37.564;2023-03-01T09:42:24;98879.19;;;4.32;48.41
25084;BME280;13075;55.682;37.564;2023-03-01T09:45:00;98871.81;;;4.65;48.52
25084;BME280;13075;55.682;37.564;2023-03-01T09:47:29;98879.47;;;4.60;49.11
25084;BME280;13075;55.682;37.564;2023-03-01T09:50:18;98873.50;;;4.80;48.87
25084;BME280;13075;55.682;37.564;2023-03-01T09:53:06;98865.63;;;5.39;48.04
25084;BME280;13075;55.682;37.564;2023-03-01T10:00:59;98887.00;;;5.08;48.71
25084;BME280;13075;55.682;37.564;2023-03-01T10:03:35;98885.53;;;5.35;48.01
25084;BME280;13075;55.682;37.564;2023-03-01T10:06:20;98876.44;;;6.02;46.10
25084;BME280;13075;55.682;37.564;2023-03-01T10:08:58;98891.34;;;6.03;46.55
25084;BME280;13075;55.682;37.564;2023-03-01T10:11:33;98885.59;;;6.00;46.38
25084;BME280;13075;55.682;37.564;2023-03-01T10:14:15;98882.53;;;6.81;45.72
25084;BME280;13075;55.682;37.564;2023-03-01T10:16:57;98879.41;;;7.05;45.11
25084;BME280;13075;55.682;37.564;2023-03-01T10:19:38;98886.31;;;6.72;45.50
25084;BME280;13075;55.682;37.564;2023-03-01T10:22:14;98887.91;;;6.66;46.50
25084;BME280;13075;55.682;37.564;2023-03-01T10:24:41;98903.09;;;6.72;46.35
25084;BME280;13075;55.682;37.564;2023-03-01T10:27:21;98898.97;;;6.91;46.43
25084;BME280;13075;55.682;37.564;2023-03-01T10:30:22;98892.72;;;5.99;46.38
25084;BME280;13075;55.682;37.564;2023-03-01T10:32:55;98900.25;;;6.53;46.91
25084;BME280;13075;55.682;37.564;2023-03-01T10:35:24;98910.50;;;5.40;47.88
25084;BME280;13075;55.682;37.564;2023-03-01T10:38:12;98894.97;;;6.17;47.32
25084;BME280;13075;55.682;37.564;2023-03-01T10:43:15;98888.84;;;6.38;47.01
25084;BME280;13075;55.682;37.564;2023-03-01T10:45:41;98896.81;;;6.16;46.90
25084;BME280;13075;55.682;37.564;2023-03-01T10:50:41;98902.91;;;4.71;49.73
25084;BME280;13075;55.682;37.564;2023-03-01T10:53:22;98903.09;;;4.47;48.63
25084;BME280;13075;55.682;37.564;2023-03-01T10:55:57;98898.03;;;5.12;48.77
25084;BME280;13075;55.682;37.564;2023-03-01T10:58:23;98904.50;;;4.80;49.08
25084;BME280;13075;55.682;37.564;2023-03-01T11:01:05;98900.16;;;4.64;48.69
25084;BME280;13075;55.682;37.564;2023-03-01T11:03:36;98912.91;;;4.61;48.16
25084;BME280;13075;55.682;37.564;2023-03-01T11:11:13;98901.63;;;4.67;49.65
25084;BME280;13075;55.682;37.564;2023-03-01T11:13:56;98914.78;;;4.52;49.22
25084;BME280;13075;55.682;37.564;2023-03-01T11:16:39;98912.25;;;4.81;48.71
25084;BME280;13075;55.682;37.564;2023-03-01T11:21:38;98907.50;;;4.77;49.24
25084;BME280;13075;55.682;37.564;2023-03-01T11:24:09;98890.91;;;5.27;49.26
25084;BME280;13075;55.682;37.564;2023-03-01T11:26:39;98898.31;;;5.02;48.59
25084;BME280;13075;55.682;37.564;2023-03-01T11:31:57;98897.00;;;4.46;50.05
25084;BME280;13075;55.682;37.564;2023-03-01T11:34:46;98918.13;;;4.23;49.74
25084;BME280;13075;55.682;37.564;2023-03-01T11:37:21;98907.94;;;4.43;50.23
25084;BME280;13075;55.682;37.564;2023-03-01T11:39:55;98901.38;;;4.76;48.88
25084;BME280;13075;55.682;37.564;2023-03-01T11:42:37;98906.94;;;4.13;50.22
25084;BME280;13075;55.682;37.564;2023-03-01T11:45:10;98906.59;;;4.16;49.86
25084;BME280;13075;55.682;37.564;2023-03-01T11:50:18;98921.66;;;3.46;50.95
25084;BME280;13075;55.682;37.564;2023-03-01T11:55:30;98919.31;;;4.21;50.32
25084;BME280;13075;55.682;37.564;2023-03-01T12:01:00;98918.38;;;3.83;49.63
25084;BME280;13075;55.682;37.564;2023-03-01T12:03:57;98925.09;;;4.47;49.41
25084;BME280;13075;55.682;37.564;2023-03-01T12:07:00;98924.59;;;4.52;48.12
25084;BME280;13075;55.682;37.564;2023-03-01T12:20:46;98926.16;;;5.64;47.26
25084;BME280;13075;55.682;37.564;2023-03-01T12:26:34;98921.50;;;5.52;46.61
25084;BME280;13075;55.682;37.564;2023-03-01T12:37:32;98915.97;;;5.68;47.63
25084;BME280;13075;55.682;37.564;2023-03-01T12:42:47;98916.81;;;5.68;46.73
25084;BME280;13075;55.682;37.564;2023-03-01T12:51:05;98922.47;;;5.65;45.81
25084;BME280;13075;55.682;37.564;2023-03-01T12:53:39;98926.34;;;4.82;47.53
25084;BME280;13075;55.682;37.564;2023-03-01T12:56:10;98923.97;;;4.87;46.42
25084;BME280;13075;55.682;37.564;2023-03-01T13:04:43;98931.91;;;5.39;46.72
25084;BME280;13075;55.682;37.564;2023-03-01T13:12:51;98931.91;;;4.87;47.21
25084;BME280;13075;55.682;37.564;2023-03-01T13:23:43;98941.88;;;4.85;48.11
25084;BME280;13075;55.682;37.564;2023-03-01T13:26:09;98923.34;;;4.85;48.83
25084;BME280;13075;55.682;37.564;2023-03-01T13:33:47;98926.41;;;4.51;49.19
25084;BME280;13075;55.682;37.564;2023-03-01T13:36:46;98919.69;;;4.63;49.20
25084;BME280;13075;55.682;37.564;2023-03-01T13:39:29;98907.34;;;4.33;49.29
25084;BME280;13075;55.682;37.564;2023-03-01T13:41:58;98916.09;;;4.03;50.26
25084;BME280;13075;55.682;37.564;2023-03-01T13:44:36;98926.31;;;4.36;50.00
25084;BME280;13075;55.682;37.564;2023-03-01T13:52:44;98909.34;;;4.00;50.85
25084;BME280;13075;55.682;37.564;2023-03-01T13:57:39;98913.16;;;3.98;50.79
25084;BME280;13075;55.682;37.564;2023-03-01T14:00:06;98923.97;;;3.88;51.18
25084;BME280;13075;55.682;37.564;2023-03-01T14:02:32;98903.13;;;3.85;51.12
25084;BME280;13075;55.682;37.564;2023-03-01T14:05:00;98902.81;;;3.88;51.42
25084;BME280;13075;55.682;37.564;2023-03-01T14:07:28;98909.56;;;3.91;51.41
25084;BME280;13075;55.682;37.564;2023-03-01T14:10:00;98904.41;;;3.66;51.21
25084;BME280;13075;55.682;37.564;2023-03-01T14:13:12;98898.34;;;3.50;51.24
25084;BME280;13075;55.682;37.564;2023-03-01T14:21:24;98900.50;;;3.46;51.59
25084;BME280;13075;55.682;37.564;2023-03-01T14:23:51;98896.63;;;3.65;51.08
25084;BME280;13075;55.682;37.564;2023-03-01T14:26:22;98893.50;;;3.61;51.47
25084;BME280;13075;55.682;37.564;2023-03-01T14:28:48;98895.19;;;3.85;50.63
25084;BME280;13075;55.682;37.564;2023-03-01T14:31:37;98893.38;;;3.47;51.55
25084;BME280;13075;55.682;37.564;2023-03-01T14:34:05;98886.38;;;3.62;50.87
25084;BME280;13075;55.682;37.564;2023-03-01T14:36:33;98882.81;;;3.47;51.89
25084;BME280;13075;55.682;37.564;2023-03-01T14:38:59;98884.72;;;3.22;51.81
25084;BME280;13075;55.682;37.564;2023-03-01T14:41:33;98876.66;;;3.54;51.34
25084;BME280;13075;55.682;37.564;2023-03-01T14:44:00;98887.34;;;3.30;52.27
25084;BME280;13075;55.682;37.564;2023-03-01T14:46:41;98870.81;;;3.67;52.76
25084;BME280;13075;55.682;37.564;2023-03-01T14:49:23;98878.66;;;3.52;52.36
25084;BME280;13075;55.682;37.564;2023-03-01T14:54:24;98870.47;;;3.31;53.14
25084;BME280;13075;55.682;37.564;2023-03-01T14:56:52;98878.13;;;3.18;53.51
25084;BME280;13075;55.682;37.564;2023-03-01T14:59:22;98866.22;;;3.22;53.59
25084;BME280;13075;55.682;37.564;2023-03-01T15:01:48;98872.50;;;3.21;53.37
25084;BME280;13075;55.682;37.564;2023-03-01T15:04:15;98872.09;;;3.48;53.67